Time;durP1;ratioP1;P1;durP2;ratioP2;P2;SDS_P1;SDS_P2;PMS_P1;PMS_P2;Temp;Humidity;BMP_temperature;BMP_pressure;BME280_temperature;BME280_humidity;BME280_pressure;Samples;Min_cycle;Max_cycle;Signal;HPM_P1;HPM_P2
2022/07/29 00:02:26;;;;;;;7.28;2.80;;;22.30;99.90;;;;;;5028644;28;20045;-83
2022/07/29 00:04:53;;;;;;;3.63;3.08;;;22.30;99.90;;;;;;5030268;28;20049;-83
2022/07/29 00:07:20;;;;;;;6.07;3.42;;;22.30;99.90;;;;;;5029698;28;20050;-84
2022/07/29 00:09:47;;;;;;;4.00;3.00;;;22.30;99.90;;;;;;5029340;28;20433;-83
2022/07/29 00:12:19;;;;;;;3.65;2.75;;;22.30;99.90;;;;;;5031950;28;20049;-83
2022/07/29 00:14:54;;;;;;;4.40;3.05;;;22.20;99.90;;;;;;5022974;28;20050;-83
2022/07/29 00:17:22;;;;;;;5.20;2.67;;;22.20;99.90;;;;;;5029160;28;20045;-83
2022/07/29 00:19:49;;;;;;;3.50;2.85;;;22.20;99.90;;;;;;5031381;28;20075;-83
2022/07/29 00:22:15;;;;;;;7.20;2.97;;;22.20;99.90;;;;;;5028586;28;20080;-81
2022/07/29 00:24:42;;;;;;;4.50;3.13;;;22.20;99.90;;;;;;5032171;28;20088;-83
2022/07/29 00:27:09;;;;;;;7.38;2.92;;;22.20;99.90;;;;;;5029097;28;20420;-83
2022/07/29 00:29:36;;;;;;;7.95;2.95;;;22.20;99.90;;;;;;5031205;28;20465;-83
2022/07/29 00:32:02;;;;;;;4.82;2.85;;;22.30;99.90;;;;;;5035733;28;20070;-84
2022/07/29 00:37:15;;;;;;;6.78;2.88;;;22.20;99.90;;;;;;5028437;28;20054;-84
2022/07/29 00:39:42;;;;;;;4.97;2.65;;;22.10;99.90;;;;;;5028332;28;20451;-84
2022/07/29 00:42:09;;;;;;;3.40;2.45;;;22.20;99.90;;;;;;5029761;28;20045;-82
2022/07/29 00:44:41;;;;;;;4.18;2.67;;;22.10;99.90;;;;;;5027128;28;20100;-81
2022/07/29 00:47:09;;;;;;;4.85;2.42;;;22.20;99.90;;;;;;5030207;28;20113;-81
2022/07/29 00:49:38;;;;;;;7.18;2.75;;;22.20;99.90;;;;;;5030404;28;20049;-81
2022/07/29 00:52:06;;;;;;;5.20;2.35;;;22.20;99.90;;;;;;5022907;28;20062;-81
2022/07/29 00:54:33;;;;;;;7.13;3.15;;;22.20;99.90;;;;;;5029218;28;20076;-81
2022/07/29 00:57:02;;;;;;;5.47;2.97;;;22.20;99.90;;;;;;5029037;28;20133;-82
2022/07/29 00:59:32;;;;;;;;;;;22.20;99.90;;;;;;5027750;28;20046;-82
2022/07/29 01:02:04;;;;;;;6.53;2.63;;;22.20;99.90;;;;;;5030640;28;19972;-84
2022/07/29 01:04:31;;;;;;;2.75;2.53;;;22.20;99.90;;;;;;5028587;28;20069;-83
2022/07/29 01:07:00;;;;;;;3.30;2.38;;;22.10;99.90;;;;;;5033807;28;20049;-82
2022/07/29 01:09:28;;;;;;;5.15;2.70;;;22.10;99.90;;;;;;5032652;28;20085;-84
2022/07/29 01:12:15;;;;;;;4.43;2.65;;;22.10;99.90;;;;;;5029965;28;20546;-83
2022/07/29 01:14:43;;;;;;;4.00;2.25;;;22.10;99.90;;;;;;5031084;28;20053;-83
2022/07/29 01:17:16;;;;;;;3.38;2.30;;;22.10;99.90;;;;;;5032685;28;20085;-83
2022/07/29 01:20:03;;;;;;;5.57;2.67;;;22.00;99.90;;;;;;5032448;28;20077;-83
2022/07/29 01:22:54;;;;;;;3.38;2.30;;;22.00;99.90;;;;;;5029692;28;20081;-83
2022/07/29 01:25:59;;;;;;;4.47;2.90;;;22.00;99.90;;;;;;5030327;28;20050;-84
2022/07/29 01:28:46;;;;;;;4.38;2.60;;;21.90;99.90;;;;;;5032681;28;20056;-83
2022/07/29 01:31:18;;;;;;;4.82;2.40;;;21.90;99.90;;;;;;5032303;28;20148;-83
2022/07/29 01:33:58;;;;;;;4.97;2.20;;;21.90;99.90;;;;;;5028783;28;20100;-84
2022/07/29 01:36:39;;;;;;;3.58;2.30;;;21.90;99.90;;;;;;5031976;28;20046;-84
2022/07/29 01:39:27;;;;;;;5.25;2.50;;;21.90;99.90;;;;;;5028765;28;20050;-84
2022/07/29 01:42:14;;;;;;;5.40;2.65;;;21.90;99.90;;;;;;5028415;28;20088;-84
2022/07/29 01:45:02;;;;;;;3.92;2.50;;;21.90;99.90;;;;;;5026711;28;20089;-83
2022/07/29 01:47:40;;;;;;;2.83;2.28;;;21.90;99.90;;;;;;5026168;28;20076;-83
2022/07/29 01:50:12;;;;;;;3.83;2.30;;;21.90;99.90;;;;;;5031336;28;20046;-83
2022/07/29 01:52:49;;;;;;;6.40;2.60;;;21.90;99.90;;;;;;5035116;28;20084;-83
2022/07/29 01:55:19;;;;;;;5.78;2.65;;;21.90;99.90;;;;;;5032386;28;20046;-84
2022/07/29 01:57:48;;;;;;;5.88;2.65;;;21.90;99.90;;;;;;5031973;28;20057;-84
2022/07/29 02:00:16;;;;;;;5.45;2.03;;;21.90;99.90;;;;;;5026770;28;20049;-81
2022/07/29 02:02:46;;;;;;;5.75;2.45;;;21.80;99.90;;;;;;5034963;28;20054;-81
2022/07/29 02:05:15;;;;;;;6.38;2.53;;;21.90;99.90;;;;;;5032837;28;20132;-81
2022/07/29 02:07:44;;;;;;;9.13;2.67;;;21.80;99.90;;;;;;5028430;28;20050;-81
2022/07/29 02:10:12;;;;;;;5.28;2.80;;;21.80;99.90;;;;;;5027729;28;20050;-82
2022/07/29 02:12:40;;;;;;;5.32;2.20;;;21.80;99.90;;;;;;5035287;28;20130;-80
2022/07/29 02:15:08;;;;;;;4.22;2.40;;;21.80;99.90;;;;;;5042561;28;20034;-81
2022/07/29 02:17:45;;;;;;;4.68;2.33;;;21.80;99.90;;;;;;5041667;28;20050;-81
2022/07/29 02:20:12;;;;;;;4.03;2.10;;;21.80;99.90;;;;;;5032395;28;20077;-82
2022/07/29 02:22:40;;;;;;;5.60;2.47;;;21.80;99.90;;;;;;5039612;28;20068;-82
2022/07/29 02:25:08;;;;;;;4.75;2.20;;;21.70;99.90;;;;;;5036981;28;20053;-81
2022/07/29 02:27:42;;;;;;;3.53;2.10;;;21.70;99.90;;;;;;5032689;28;20108;-82
2022/07/29 02:30:10;;;;;;;6.35;2.42;;;21.70;99.90;;;;;;5036177;28;20068;-81
2022/07/29 02:32:39;;;;;;;2.72;2.15;;;21.60;99.90;;;;;;5036294;28;20046;-81
2022/07/29 02:35:09;;;;;;;4.50;2.13;;;21.60;99.90;;;;;;5035810;28;20042;-82
2022/07/29 02:37:37;;;;;;;3.78;2.15;;;21.60;99.90;;;;;;5037979;28;20490;-81
2022/07/29 02:40:05;;;;;;;4.88;2.25;;;21.60;99.90;;;;;;5033966;28;20066;-82
2022/07/29 02:42:35;;;;;;;4.63;2.45;;;21.50;99.90;;;;;;5033953;28;20042;-81
2022/07/29 02:45:03;;;;;;;3.20;2.50;;;21.50;99.90;;;;;;5030441;28;20077;-81
2022/07/29 02:47:35;;;;;;;2.60;2.28;;;21.50;99.90;;;;;;5026469;28;20137;-81
2022/07/29 02:50:11;;;;;;;3.08;2.38;;;21.50;99.90;;;;;;5026640;28;20085;-81
2022/07/29 02:52:41;;;;;;;;;;;21.40;99.90;;;;;;5028313;28;20050;-81
2022/07/29 02:55:16;;;;;;;3.42;2.28;;;21.50;99.90;;;;;;5022044;28;19921;-81
2022/07/29 02:57:47;;;;;;;3.63;2.30;;;21.40;99.90;;;;;;5027166;28;20045;-81
2022/07/29 03:00:23;;;;;;;3.75;2.45;;;21.40;99.90;;;;;;5021130;28;20088;-81
2022/07/29 03:02:53;;;;;;;4.33;2.57;;;21.40;99.90;;;;;;5027899;28;20079;-81
2022/07/29 03:05:21;;;;;;;2.53;1.90;;;21.40;99.90;;;;;;5026303;28;20296;-82
2022/07/29 03:07:56;;;;;;;3.35;2.60;;;21.40;99.90;;;;;;5028855;28;20551;-81
2022/07/29 03:10:26;;;;;;;4.00;2.50;;;21.40;99.90;;;;;;5024156;28;20078;-81
2022/07/29 03:12:55;;;;;;;3.55;2.28;;;21.40;99.90;;;;;;5031391;28;20049;-81
2022/07/29 03:15:22;;;;;;;2.90;2.15;;;21.40;99.90;;;;;;5032518;28;20152;-82
2022/07/29 03:17:52;;;;;;;5.30;2.22;;;21.40;99.90;;;;;;5031925;28;20061;-81
2022/07/29 03:20:19;;;;;;;3.67;2.33;;;21.30;99.90;;;;;;5030362;28;20462;-81
2022/07/29 03:22:48;;;;;;;3.45;2.20;;;21.30;99.90;;;;;;5028839;28;20050;-81
2022/07/29 03:25:17;;;;;;;3.13;2.40;;;21.30;99.90;;;;;;5029871;28;20104;-81
2022/07/29 03:27:44;;;;;;;4.22;2.42;;;21.40;99.90;;;;;;5031739;28;20538;-81
2022/07/29 03:30:12;;;;;;;4.20;2.40;;;21.30;99.90;;;;;;5027523;28;20045;-81
2022/07/29 03:32:44;;;;;;;3.22;2.60;;;21.30;99.90;;;;;;5029904;28;20045;-82
2022/07/29 03:35:10;;;;;;;6.60;2.47;;;21.30;99.90;;;;;;5029949;28;20050;-81
2022/07/29 03:37:37;;;;;;;3.67;2.13;;;21.20;99.90;;;;;;5023937;28;20086;-81
2022/07/29 03:40:08;;;;;;;2.65;2.15;;;21.20;99.90;;;;;;5024505;28;20515;-82
2022/07/29 03:42:37;;;;;;;2.78;2.13;;;21.20;99.90;;;;;;5029155;28;20077;-81
2022/07/29 03:45:10;;;;;;;3.20;2.20;;;21.20;99.90;;;;;;5030473;28;20058;-81
2022/07/29 03:47:42;;;;;;;5.82;2.40;;;21.10;99.90;;;;;;5027840;28;20115;-82
2022/07/29 03:50:19;;;;;;;6.97;2.40;;;21.10;99.90;;;;;;5030295;28;20083;-82
2022/07/29 03:52:47;;;;;;;4.72;2.30;;;21.00;99.90;;;;;;5031515;28;20049;-82
2022/07/29 03:55:14;;;;;;;4.68;2.30;;;21.00;99.90;;;;;;5021981;28;20057;-81
2022/07/29 03:57:42;;;;;;;4.63;2.45;;;21.00;99.90;;;;;;5032293;28;20092;-81
2022/07/29 04:00:09;;;;;;;7.03;2.33;;;21.00;99.90;;;;;;5031998;28;20081;-81
2022/07/29 04:02:37;;;;;;;3.17;2.30;;;21.00;99.90;;;;;;5035577;28;20050;-81
2022/07/29 04:05:04;;;;;;;5.03;2.35;;;21.00;99.90;;;;;;5044100;28;20046;-81
2022/07/29 04:07:31;;;;;;;4.65;2.00;;;21.00;99.90;;;;;;5036354;28;20050;-80
2022/07/29 04:09:58;;;;;;;3.10;2.30;;;21.00;99.90;;;;;;5035209;28;20458;-80
2022/07/29 04:12:24;;;;;;;5.68;2.42;;;21.00;99.90;;;;;;5036110;28;20080;-81
2022/07/29 04:14:51;;;;;;;2.60;2.10;;;21.20;99.90;;;;;;5021423;28;20132;-81
2022/07/29 04:17:18;;;;;;;2.28;2.08;;;21.10;99.90;;;;;;5024421;28;20045;-81
2022/07/29 04:19:45;;;;;;;3.05;2.40;;;21.10;99.90;;;;;;5021944;28;20078;-81
2022/07/29 04:22:11;;;;;;;4.60;2.92;;;21.10;99.90;;;;;;5017652;28;20490;-83
2022/07/29 04:24:38;;;;;;;3.22;2.70;;;21.00;99.90;;;;;;5021949;28;20045;-83
2022/07/29 04:27:09;;;;;;;4.75;3.05;;;21.00;99.90;;;;;;5024206;28;20052;-83
2022/07/29 04:29:36;;;;;;;6.40;3.00;;;21.10;99.90;;;;;;5026476;28;20111;-83
2022/07/29 04:32:21;;;;;;;4.95;2.72;;;21.00;99.90;;;;;;5023384;28;20053;-83
2022/07/29 04:34:48;;;;;;;3.72;2.72;;;21.00;99.90;;;;;;5021690;28;20069;-83
2022/07/29 04:37:15;;;;;;;5.35;2.88;;;21.10;99.90;;;;;;5026551;28;20050;-83
2022/07/29 04:39:42;;;;;;;5.20;2.50;;;21.10;99.90;;;;;;5024253;28;20168;-83
2022/07/29 04:42:08;;;;;;;4.10;2.78;;;21.10;99.90;;;;;;5032026;28;20073;-84
2022/07/29 04:44:35;;;;;;;6.82;3.03;;;21.20;99.90;;;;;;5031318;28;20073;-83
2022/07/29 04:47:07;;;;;;;5.38;3.03;;;21.20;99.90;;;;;;5030984;28;20057;-84
2022/07/29 04:49:36;;;;;;;4.63;2.78;;;21.20;99.90;;;;;;5032020;28;20053;-83
2022/07/29 04:52:04;;;;;;;4.10;2.78;;;21.30;99.90;;;;;;5030497;28;20416;-84
2022/07/29 04:54:30;;;;;;;4.43;2.55;;;21.20;99.90;;;;;;5031413;28;20069;-81
2022/07/29 04:56:57;;;;;;;8.23;3.40;;;21.30;99.90;;;;;;5040130;28;20499;-81
2022/07/29 04:59:24;;;;;;;7.00;3.03;;;21.30;99.90;;;;;;5041109;28;20177;-84
2022/07/29 05:01:51;;;;;;;5.22;3.20;;;21.30;99.90;;;;;;5043339;28;20420;-83
2022/07/29 05:04:18;;;;;;;4.10;2.50;;;21.40;99.90;;;;;;5037420;28;20054;-83
2022/07/29 05:06:46;;;;;;;9.30;2.90;;;21.50;99.90;;;;;;5043722;28;20120;-81
2022/07/29 05:09:12;;;;;;;5.88;3.03;;;21.50;99.90;;;;;;5042148;28;20050;-80
2022/07/29 05:11:39;;;;;;;7.15;2.80;;;21.50;99.90;;;;;;5042041;28;20053;-81
2022/07/29 05:14:06;;;;;;;5.18;3.40;;;21.60;99.90;;;;;;5043118;28;20109;-81
2022/07/29 05:16:33;;;;;;;3.67;2.38;;;21.60;99.90;;;;;;5041022;28;20053;-81
2022/07/29 05:19:00;;;;;;;4.90;2.90;;;21.70;99.90;;;;;;5037658;28;20046;-82
2022/07/29 05:21:26;;;;;;;3.85;2.80;;;21.70;99.90;;;;;;5033588;28;20109;-82
2022/07/29 05:23:53;;;;;;;7.97;3.08;;;21.70;99.90;;;;;;5034868;28;20049;-82
2022/07/29 05:26:20;;;;;;;12.35;5.97;;;21.80;99.90;;;;;;5034966;28;20183;-83
2022/07/29 05:28:46;;;;;;;8.23;3.63;;;21.90;99.90;;;;;;5031778;28;20054;-82
2022/07/29 05:31:14;;;;;;;5.63;4.30;;;22.00;99.90;;;;;;5035159;28;20073;-82
2022/07/29 05:33:41;;;;;;;8.77;3.10;;;22.10;99.90;;;;;;5032830;28;20141;-83
2022/07/29 05:36:08;;;;;;;5.18;2.78;;;22.20;99.90;;;;;;5033955;28;20084;-82
2022/07/29 05:38:35;;;;;;;3.17;2.80;;;22.20;99.90;;;;;;5028300;28;20092;-82
2022/07/29 05:41:03;;;;;;;3.30;2.75;;;22.20;99.90;;;;;;5022660;28;20053;-82
2022/07/29 05:43:30;;;;;;;7.78;3.35;;;22.20;99.90;;;;;;5028905;28;20136;-83
2022/07/29 05:45:57;;;;;;;6.28;3.60;;;22.20;99.90;;;;;;5031463;28;20057;-82
2022/07/29 05:48:25;;;;;;;6.40;4.30;;;22.30;99.90;;;;;;5032834;28;20049;-82
2022/07/29 05:50:51;;;;;;;4.95;3.13;;;22.30;99.90;;;;;;5033055;28;20050;-82
2022/07/29 05:53:18;;;;;;;7.55;3.60;;;22.40;99.90;;;;;;5033064;28;20092;-82
2022/07/29 05:55:47;;;;;;;4.72;2.95;;;22.50;99.90;;;;;;5034651;28;20049;-83
2022/07/29 05:58:14;;;;;;;4.95;2.80;;;22.50;99.90;;;;;;5028152;28;20462;-82
2022/07/29 06:00:41;;;;;;;3.65;2.72;;;22.50;99.90;;;;;;5034167;28;20045;-82
2022/07/29 06:03:08;;;;;;;4.00;2.70;;;22.60;99.90;;;;;;5038387;28;20104;-82
2022/07/29 06:05:35;;;;;;;6.63;3.45;;;22.60;99.90;;;;;;5030714;28;20113;-83
2022/07/29 06:08:02;;;;;;;6.20;2.85;;;22.60;99.90;;;;;;5033781;28;20058;-82
2022/07/29 06:10:28;;;;;;;4.40;2.70;;;22.70;99.90;;;;;;5030754;28;20133;-82
2022/07/29 06:12:56;;;;;;;4.10;2.92;;;22.70;99.90;;;;;;5033671;28;20091;-82
2022/07/29 06:15:22;;;;;;;6.13;2.60;;;22.70;99.90;;;;;;5031540;28;20085;-82
2022/07/29 06:17:49;;;;;;;7.03;2.90;;;22.70;99.90;;;;;;5032610;28;20555;-82
2022/07/29 06:20:29;;;;;;;3.13;2.83;;;22.70;99.90;;;;;;5032969;28;20049;-83
2022/07/29 06:22:57;;;;;;;5.85;3.13;;;22.70;99.90;;;;;;5030725;28;20113;-82
2022/07/29 06:25:24;;;;;;;3.28;2.65;;;22.70;99.90;;;;;;5030714;28;20140;-82
2022/07/29 06:27:52;;;;;;;4.97;2.80;;;22.70;99.90;;;;;;5031662;28;20080;-82
2022/07/29 06:30:18;;;;;;;3.28;2.60;;;22.80;99.90;;;;;;5030696;28;20062;-82
2022/07/29 06:32:45;;;;;;;3.70;2.88;;;22.80;99.90;;;;;;5026402;28;20076;-82
2022/07/29 06:35:12;;;;;;;6.18;3.40;;;22.80;99.90;;;;;;5031359;28;20570;-82
2022/07/29 06:37:59;;;;;;;3.58;2.92;;;22.90;99.90;;;;;;5025555;28;20526;-82
2022/07/29 06:43:11;;;;;;;3.75;3.15;;;23.00;99.90;;;;;;5029898;28;20062;-82
2022/07/29 06:45:40;;;;;;;3.60;2.60;;;23.10;99.90;;;;;;5034826;28;20057;-83
2022/07/29 06:48:08;;;;;;;3.47;2.38;;;23.20;99.90;;;;;;5033340;28;20054;-80
2022/07/29 06:50:35;;;;;;;3.70;2.63;;;23.20;99.90;;;;;;5031764;28;20111;-83
2022/07/29 06:53:02;;;;;;;4.40;2.85;;;23.30;99.90;;;;;;5034129;28;20050;-82
2022/07/29 06:55:29;;;;;;;4.85;2.75;;;23.30;99.90;;;;;;5029329;28;20045;-83
2022/07/29 06:57:55;;;;;;;7.60;2.83;;;23.30;99.90;;;;;;5040199;28;20041;-82
2022/07/29 07:00:22;;;;;;;8.35;2.90;;;23.30;99.90;;;;;;5033339;28;20054;-83
2022/07/29 07:02:49;;;;;;;7.07;3.55;;;23.30;99.90;;;;;;5030504;28;20137;-83
2022/07/29 07:05:15;;;;;;;4.60;2.92;;;23.40;99.90;;;;;;5033370;28;20136;-83
2022/07/29 07:07:42;;;;;;;4.60;3.08;;;23.40;99.90;;;;;;5032645;28;20080;-83
2022/07/29 07:10:09;;;;;;;5.93;2.60;;;23.40;99.90;;;;;;5033518;28;20128;-83
2022/07/29 07:12:36;;;;;;;4.07;2.72;;;23.50;99.90;;;;;;5030100;28;20080;-83
2022/07/29 07:15:03;;;;;;;4.38;2.65;;;23.50;99.90;;;;;;5033043;28;20109;-83
2022/07/29 07:17:30;;;;;;;4.10;2.47;;;23.60;99.90;;;;;;5032718;28;20046;-83
2022/07/29 07:19:56;;;;;;;2.72;2.28;;;23.50;99.90;;;;;;5030435;28;20092;-83
2022/07/29 07:22:23;;;;;;;4.95;2.88;;;23.60;99.90;;;;;;5032894;28;20124;-84
2022/07/29 07:24:50;;;;;;;5.07;2.70;;;23.70;99.90;;;;;;5031337;28;20054;-83
2022/07/29 07:27:17;;;;;;;5.82;3.03;;;23.70;99.90;;;;;;5033343;28;20049;-83
2022/07/29 07:29:43;;;;;;;3.40;2.35;;;23.70;99.90;;;;;;5031221;28;20113;-83
2022/07/29 07:32:10;;;;;;;5.60;2.60;;;23.70;99.90;;;;;;5031833;28;20155;-84
2022/07/29 07:34:37;;;;;;;4.28;2.20;;;23.70;99.90;;;;;;5031761;28;20056;-84
2022/07/29 07:37:05;;;;;;;6.72;2.85;;;23.80;99.90;;;;;;5026198;28;20475;-84
2022/07/29 07:39:32;;;;;;;3.97;2.60;;;23.80;99.90;;;;;;5032982;28;20080;-83
2022/07/29 07:41:59;;;;;;;5.47;1.92;;;23.80;99.90;;;;;;5031193;28;20050;-82
2022/07/29 07:44:25;;;;;;;5.60;2.30;;;23.80;99.90;;;;;;5031830;28;20068;-82
2022/07/29 07:46:52;;;;;;;3.17;2.05;;;23.80;99.90;;;;;;5032309;28;20522;-84
2022/07/29 07:49:20;;;;;;;5.22;2.05;;;23.90;99.90;;;;;;5030622;28;20042;-83
2022/07/29 07:51:47;;;;;;;4.15;2.40;;;23.90;99.90;;;;;;5033327;28;20060;-83
2022/07/29 07:54:17;;;;;;;11.95;2.55;;;23.90;99.90;;;;;;5031654;28;20072;-83
2022/07/29 07:56:49;;;;;;;2.42;2.20;;;24.00;99.90;;;;;;5032208;28;20084;-83
2022/07/29 07:59:19;;;;;;;5.90;1.92;;;23.90;99.90;;;;;;5031590;28;20530;-83
2022/07/29 08:01:45;;;;;;;4.00;1.88;;;24.00;99.90;;;;;;5031154;28;20049;-83
2022/07/29 08:04:21;;;;;;;4.57;1.95;;;24.00;99.90;;;;;;5031295;28;20065;-83
2022/07/29 08:06:54;;;;;;;3.45;1.58;;;24.00;99.90;;;;;;5031945;28;20046;-84
2022/07/29 08:09:21;;;;;;;9.55;2.08;;;24.10;99.90;;;;;;5030598;28;20073;-84
2022/07/29 08:11:57;;;;;;;10.85;2.45;;;24.10;99.90;;;;;;5033963;28;20061;-83
2022/07/29 08:14:24;;;;;;;3.28;2.10;;;24.10;99.90;;;;;;5038096;28;20068;-83
2022/07/29 08:16:51;;;;;;;4.78;1.80;;;24.20;99.90;;;;;;5032303;28;20069;-83
2022/07/29 08:19:18;;;;;;;4.82;1.65;;;24.30;99.90;;;;;;5037362;28;20045;-83
2022/07/29 08:21:45;;;;;;;3.25;1.65;;;24.40;99.90;;;;;;5039731;28;20042;-82
2022/07/29 08:26:57;;;;;;;6.03;1.92;;;24.60;99.90;;;;;;5034553;28;20054;-83
2022/07/29 08:29:23;;;;;;;3.40;1.95;;;24.70;99.90;;;;;;5030691;28;20414;-84
2022/07/29 08:31:50;;;;;;;4.95;1.95;;;24.80;99.90;;;;;;5032378;28;20049;-83
2022/07/29 08:34:17;;;;;;;5.68;1.90;;;24.90;99.90;;;;;;5028798;28;20081;-83
2022/07/29 08:36:51;;;;;;;10.02;1.80;;;25.00;99.90;;;;;;5029845;28;20068;-83
2022/07/29 08:39:18;;;;;;;3.10;1.85;;;25.10;99.90;;;;;;5030719;28;20387;-83
2022/07/29 08:41:45;;;;;;;2.05;1.60;;;25.20;99.90;;;;;;5028396;28;20074;-83
2022/07/29 08:44:27;;;;;;;6.47;1.83;;;25.30;99.90;;;;;;5028777;28;20053;-83
2022/07/29 08:46:56;;;;;;;5.00;1.93;;;25.40;99.90;;;;;;5036718;28;20372;-83
2022/07/29 08:49:23;;;;;;;4.03;1.80;;;25.40;99.90;;;;;;5031017;28;20049;-83
2022/07/29 08:51:51;;;;;;;2.65;1.65;;;25.40;99.90;;;;;;5025752;28;20060;-84
2022/07/29 08:54:18;;;;;;;4.20;2.03;;;25.40;99.90;;;;;;5031600;28;20049;-83
2022/07/29 08:56:49;;;;;;;3.92;1.83;;;25.50;99.90;;;;;;5028845;28;20137;-83
2022/07/29 08:59:18;;;;;;;5.50;2.00;;;25.50;99.90;;;;;;5027957;28;20076;-84
2022/07/29 09:01:47;;;;;;;3.13;1.65;;;25.50;99.90;;;;;;5033145;28;20076;-83
2022/07/29 09:04:15;;;;;;;3.15;1.65;;;25.50;99.90;;;;;;5030163;28;20060;-83
2022/07/29 09:06:47;;;;;;;5.55;1.88;;;25.60;99.90;;;;;;5030826;28;20088;-83
2022/07/29 09:09:14;;;;;;;4.55;2.25;;;25.70;99.90;;;;;;5031381;28;20089;-84
2022/07/29 09:11:42;;;;;;;9.82;2.10;;;25.70;99.90;;;;;;5027795;28;20105;-83
2022/07/29 09:14:12;;;;;;;3.85;1.80;;;25.90;99.90;;;;;;5029094;28;20132;-84
2022/07/29 09:16:46;;;;;;;6.35;2.05;;;26.00;99.90;;;;;;5028306;28;20180;-84
2022/07/29 09:19:24;;;;;;;3.35;1.50;;;26.00;99.90;;;;;;5024419;28;20057;-83
2022/07/29 09:21:57;;;;;;;3.83;1.95;;;26.10;99.90;;;;;;5030118;28;20049;-83
2022/07/29 09:24:27;;;;;;;4.28;1.80;;;26.20;99.90;;;;;;5031429;28;20049;-84
2022/07/29 09:26:53;;;;;;;5.57;1.55;;;26.20;99.90;;;;;;5024320;28;20054;-83
2022/07/29 09:29:23;;;;;;;4.50;1.75;;;26.30;99.90;;;;;;5032555;28;20057;-83
2022/07/29 09:31:51;;;;;;;4.15;1.80;;;26.40;99.90;;;;;;5030712;28;20073;-84
2022/07/29 09:34:31;;;;;;;5.68;1.58;;;26.40;99.90;;;;;;5033990;28;20085;-83
2022/07/29 09:36:58;;;;;;;4.10;1.65;;;26.40;99.90;;;;;;5030895;28;20050;-83
2022/07/29 09:39:29;;;;;;;2.35;1.67;;;26.40;99.90;;;;;;5033502;28;20073;-83
2022/07/29 09:41:58;;;;;;;4.00;1.60;;;26.40;99.90;;;;;;5038354;28;20049;-83
2022/07/29 09:44:25;;;;;;;6.70;2.00;;;26.40;99.90;;;;;;5024779;28;20085;-83
2022/07/29 09:47:06;;;;;;;4.10;1.70;;;26.50;99.90;;;;;;5027930;28;20466;-83
2022/07/29 09:49:53;;;;;;;2.88;1.90;;;26.50;99.90;;;;;;5023582;28;20092;-83
2022/07/29 09:52:20;;;;;;;7.75;1.95;;;26.50;99.90;;;;;;5028295;28;20088;-83
2022/07/29 09:54:47;;;;;;;6.57;2.03;;;26.50;99.90;;;;;;5026160;28;20065;-83
2022/07/29 09:57:26;;;;;;;4.80;2.05;;;26.50;99.90;;;;;;5033626;28;20076;-83
2022/07/29 10:00:05;;;;;;;2.47;1.55;;;26.50;99.90;;;;;;5032372;28;20042;-83
2022/07/29 10:02:34;;;;;;;5.28;2.05;;;26.50;99.90;;;;;;5033614;28;20073;-83
2022/07/29 10:05:03;;;;;;;4.20;2.35;;;26.60;99.90;;;;;;5026503;28;20492;-83
2022/07/29 10:07:55;;;;;;;5.07;2.40;;;26.50;99.90;;;;;;5033006;28;20092;-83
2022/07/29 10:10:27;;;;;;;3.95;2.33;;;26.60;99.90;;;;;;5025616;28;20092;-83
2022/07/29 10:12:57;;;;;;;4.35;2.45;;;26.70;99.90;;;;;;5032736;28;20053;-83
2022/07/29 10:15:40;;;;;;;6.75;2.60;;;26.70;99.90;;;;;;5031689;28;20042;-83
2022/07/29 10:18:08;;;;;;;6.05;2.10;;;26.70;99.90;;;;;;5029755;28;20042;-83
2022/07/29 10:20:35;;;;;;;6.18;1.95;;;26.80;99.90;;;;;;5033027;28;20046;-83
2022/07/29 10:23:02;;;;;;;3.95;2.45;;;26.90;99.90;;;;;;5034614;28;20053;-83
2022/07/29 10:25:30;;;;;;;5.45;2.30;;;26.90;99.90;;;;;;5032078;28;20054;-83
2022/07/29 10:27:57;;;;;;;4.35;1.80;;;27.00;99.90;;;;;;5035467;28;20050;-83
2022/07/29 10:30:25;;;;;;;3.13;2.25;;;27.10;99.90;;;;;;5032956;28;20132;-83
2022/07/29 10:33:30;;;;;;;3.50;2.28;;;27.30;99.90;;;;;;5033667;28;20054;-83
2022/07/29 10:36:15;;;;;;;5.32;2.42;;;27.40;99.90;;;;;;5030318;28;20070;-83
2022/07/29 10:39:14;;;;;;;3.13;2.05;;;27.50;99.90;;;;;;5030255;28;20054;-83
2022/07/29 10:41:53;;;;;;;4.15;2.42;;;27.60;99.90;;;;;;5028575;28;20073;-83
2022/07/29 10:44:23;;;;;;;4.75;1.98;;;27.60;99.90;;;;;;5031293;28;20050;-83
2022/07/29 10:46:51;;;;;;;2.75;1.80;;;27.60;99.90;;;;;;5026963;28;20127;-83
2022/07/29 10:49:20;;;;;;;6.85;2.03;;;27.70;99.90;;;;;;5032658;28;20049;-83
2022/07/29 10:51:58;;;;;;;5.07;2.00;;;27.70;99.90;;;;;;5033156;28;20110;-84
2022/07/29 10:54:35;;;;;;;3.00;2.15;;;27.80;99.90;;;;;;5026234;28;20057;-83
2022/07/29 10:57:25;;;;;;;6.45;2.78;;;27.80;99.90;;;;;;5030491;28;20439;-83
2022/07/29 11:00:13;;;;;;;4.47;2.40;;;27.90;99.90;;;;;;5030613;28;20084;-83
2022/07/29 11:02:44;;;;;;;6.13;2.88;;;27.90;99.90;;;;;;5032405;28;20042;-84
2022/07/29 11:05:14;;;;;;;4.30;2.13;;;27.80;99.90;;;;;;5034207;28;20451;-83
2022/07/29 11:08:11;;;;;;;5.80;2.78;;;27.70;99.90;;;;;;5025466;28;20501;-83
2022/07/29 11:11:06;;;;;;;4.57;2.80;;;27.60;99.90;;;;;;5014315;28;20042;-83
2022/07/29 11:13:43;;;;;;;7.85;2.20;;;27.60;99.90;;;;;;5026233;28;20054;-84
2022/07/29 11:16:09;;;;;;;3.30;2.53;;;27.50;99.90;;;;;;5025881;28;20049;-83
2022/07/29 11:19:15;;;;;;;4.85;2.25;;;27.50;99.90;;;;;;5031163;28;20076;-83
2022/07/29 11:21:52;;;;;;;6.75;2.50;;;27.50;99.90;;;;;;5020728;28;20547;-84
2022/07/29 11:24:32;;;;;;;6.17;2.80;;;27.50;99.90;;;;;;5029539;28;20053;-84
2022/07/29 11:27:20;;;;;;;3.08;2.20;;;27.50;99.90;;;;;;5030726;28;20063;-84
2022/07/29 11:29:49;;;;;;;5.68;2.22;;;27.50;99.90;;;;;;5030771;28;20049;-83
2022/07/29 11:32:19;;;;;;;5.75;1.98;;;27.50;99.90;;;;;;5030228;28;20081;-83
2022/07/29 11:35:09;;;;;;;5.78;1.80;;;27.50;99.90;;;;;;5029882;28;20084;-83
2022/07/29 11:37:46;;;;;;;3.92;1.83;;;27.50;99.90;;;;;;5029440;28;20057;-84
2022/07/29 11:40:21;;;;;;;10.90;1.88;;;27.50;99.90;;;;;;5026436;28;20062;-84
2022/07/29 11:42:49;;;;;;;4.93;2.10;;;27.50;99.90;;;;;;5030322;28;20164;-83
2022/07/29 11:45:20;;;;;;;4.68;2.15;;;27.60;99.90;;;;;;5031624;28;20427;-84
2022/07/29 11:48:14;;;;;;;2.95;1.83;;;27.50;99.90;;;;;;5027803;28;20125;-83
2022/07/29 11:50:58;;;;;;;3.75;1.92;;;27.50;99.90;;;;;;5029327;28;20502;-83
2022/07/29 11:53:25;;;;;;;4.07;2.20;;;27.50;99.90;;;;;;5028646;28;20050;-84
2022/07/29 11:55:59;;;;;;;4.80;1.80;;;27.50;99.90;;;;;;5026785;28;20042;-84
2022/07/29 11:58:28;;;;;;;7.32;2.05;;;27.50;99.90;;;;;;5028990;28;20071;-83
2022/07/29 12:00:55;;;;;;;4.93;1.90;;;27.50;99.90;;;;;;5029904;28;20077;-83
2022/07/29 12:03:26;;;;;;;3.83;1.60;;;27.50;99.90;;;;;;5029016;28;20049;-83
2022/07/29 12:06:14;;;;;;;3.88;1.85;;;27.50;99.90;;;;;;5028469;28;20049;-84
2022/07/29 12:08:44;;;;;;;3.22;1.75;;;27.50;99.90;;;;;;5026322;28;20076;-83
2022/07/29 12:11:20;;;;;;;3.22;1.70;;;27.50;99.90;;;;;;5029675;28;20514;-83
2022/07/29 12:13:50;;;;;;;3.47;1.80;;;27.50;99.90;;;;;;5031704;28;20071;-84
2022/07/29 12:16:17;;;;;;;4.93;2.00;;;27.50;99.90;;;;;;5028745;28;20136;-84
2022/07/29 12:18:56;;;;;;;3.75;1.70;;;27.50;99.90;;;;;;5029434;28;20046;-84
2022/07/29 12:21:23;;;;;;;3.00;1.90;;;27.30;99.90;;;;;;5033118;28;20200;-83
2022/07/29 12:23:56;;;;;;;7.72;1.70;;;27.30;99.90;;;;;;5029428;28;20056;-83
2022/07/29 12:26:31;;;;;;;7.70;2.60;;;27.20;99.90;;;;;;5033771;28;20056;-83
2022/07/29 12:28:59;;;;;;;4.95;1.90;;;27.20;99.90;;;;;;5030384;28;20053;-84
2022/07/29 12:31:28;;;;;;;6.18;1.75;;;27.00;99.90;;;;;;5029935;28;20078;-83
2022/07/29 12:34:08;;;;;;;5.45;1.70;;;27.00;99.90;;;;;;5029405;28;20046;-83
2022/07/29 12:36:36;;;;;;;2.75;1.40;;;27.00;99.90;;;;;;5026153;28;20094;-83
2022/07/29 12:39:04;;;;;;;8.98;2.22;;;27.00;99.90;;;;;;5030241;28;20068;-83
2022/07/29 12:41:30;;;;;;;6.90;1.75;;;27.00;99.90;;;;;;5029126;28;20042;-83
2022/07/29 12:43:57;;;;;;;5.28;1.90;;;26.90;99.90;;;;;;5030865;28;20456;-83
2022/07/29 12:46:24;;;;;;;4.10;1.40;;;26.90;99.90;;;;;;5037936;28;20088;-83
2022/07/29 12:48:54;;;;;;;4.88;1.90;;;26.90;99.90;;;;;;5037336;28;20152;-83
2022/07/29 12:51:31;;;;;;;;;;;26.80;99.90;;;;;;5040173;28;20059;-83
2022/07/29 12:54:14;;;;;;;2.97;1.70;;;26.80;99.90;;;;;;5031150;28;19959;-83
2022/07/29 12:56:43;;;;;;;7.28;1.60;;;26.80;99.90;;;;;;5026653;28;20046;-84
2022/07/29 12:59:21;;;;;;;5.20;1.65;;;26.80;99.90;;;;;;5027620;28;20049;-83
2022/07/29 13:01:50;;;;;;;8.88;1.70;;;26.80;99.90;;;;;;5029961;28;20125;-84
2022/07/29 13:04:31;;;;;;;4.50;1.90;;;26.80;99.90;;;;;;5032228;28;20491;-83
2022/07/29 13:07:01;;;;;;;7.72;1.65;;;26.80;99.90;;;;;;5026709;28;20047;-84
2022/07/29 13:09:41;;;;;;;5.25;1.60;;;26.90;99.90;;;;;;5033036;28;20100;-83
2022/07/29 13:12:10;;;;;;;5.28;1.90;;;26.90;99.90;;;;;;5029736;28;20426;-84
2022/07/29 13:14:40;;;;;;;6.30;1.70;;;26.90;99.90;;;;;;5034198;28;20065;-83
2022/07/29 13:17:20;;;;;;;9.20;2.10;;;27.00;99.90;;;;;;5034250;28;20103;-84